SAZSSCTE

Guest
Details From SAZS - SAN CARLOS DE BARILOCHE
To SCTE - El Tepual
Flight Number -
Tags generated
Created
Modified
Stats Distance 89 nm / 165 km
Max Altitude 0 ft / 0 m
Waypoints 3
Social Downloads 4
Likes 0
Share VATSIM

Download

Looking for another format? Having issues loading an existing format? Contact us
Advertisement - Login to hide

Notes

Basic altitude profile: - Ascent Rate: 1800ft/min - Ascent Speed: 320kts - Cruise Altitude: 35000ft - Cruise Speed: 320kts - Descent Rate: 1800ft/min - Descent Speed: 200kts Options: - Use NATs: yes - Use PACOTS: yes - Use low airways: yes - Use high airways: yes

Route

SAZS TEPNB SCTE

ID Type Via Altitude Latitude Longitude Leg Dist Tot Dist Heading (true) Name
O SAZS APT - 0 ft / 0 m -41.15117˚ -71.15754˚ - 0 nm - SAN CARLOS DE BARILOCHE
TEPNB FIX - 0 ft / 0 m -41.43778˚ -73.08722˚ 88 nm 88 nm 258° / 259° -
O SCTE APT - 0 ft / 0 m -41.43888˚ -73.09395˚ 0 nm 89 nm 258° / 258° El Tepual

Altitude Profile

Advertisement - Login to hide

SAZS

Details ICAO SAZS (BRC)
Name SAN CARLOS DE BARILOCHE
Region Argentina
Timezone America/Argentina/Salta (UTC-3.0)
Stats Elevation 2,776 ft / 846 m (AMSL)
Location -41.151172° -71.157541°
Runways 1
Magnetic Variation 6.604° E

METAR

SAZS 260600Z 29017KT 9999 -RA SCT018 BKN037 OVC070 07/05 Q1009

Decode

TAF

TAF SAZS 260500Z 2606/2706 31015KT 9000 -RADZ BKN020 BKN030 TX09/2618Z TN04/2610Z TEMPO 2607/2612 30015G25KT 7000 -RADZ BECMG 2614/2616 29020G30KT CAVOK BECMG 2619/2621 29015KT 9999 BKN030 BKN100

Decode

Departure Runways

ID Width Length Bearing (true) Bearing (mag) Surface Threshold Offset Overrun Length
11 157 ft / 48 m 7,693 ft / 2,345 m 114.70° 108.10° Asphalt 0 ft / 0 m 0 ft / 0 m
29 157 ft / 48 m 7,693 ft / 2,345 m 294.68° 288.08° Asphalt 0 ft / 0 m 0 ft / 0 m

SCTE

Details ICAO SCTE (PMC)
Name El Tepual
Region Chile
Timezone America/Santiago (UTC-4.0)
Stats Elevation 293 ft / 89 m (AMSL)
Location -41.438884° -73.093954°
Runways 1
Magnetic Variation 8.437° E

METAR

SCTE 260600Z 36005KT 9999 OVC030 10/10 Q1010 NOSIG

Decode

TAF

TAF SCTE 260432Z 2606/2706 32005KT 9999 SCT015 BKN035 TN08/2611Z TX11/2619Z TEMPO 2616/2618 8000 -SHRA BKN020 OVC030 BECMG 2618/2620 03005KT

Decode

Destination Runways

ID Width Length Bearing (true) Bearing (mag) Surface Threshold Offset Overrun Length
17 148 ft / 45 m 8,702 ft / 2,652 m 172.00° 163.56° Concrete 0 ft / 0 m 0 ft / 0 m
35 148 ft / 45 m 8,702 ft / 2,652 m 352.00° 343.56° Concrete 0 ft / 0 m 0 ft / 0 m

Approach Navaids

Runway Type Ident Frequency Range Bearing (true) Bearing (mag) Slope Elevation
35 Localiser IMON 110.10 MHz 18 nm / 33 km 351.94° 343.51° - 293 ft / 89 m (AMSL)
35 Glidescope IMON 110.10 MHz 10 nm / 19 km 352.00° 343.56° 3.00° 293 ft / 89 m (AMSL)
35 DME IMON 115.70 MHz 18 nm / 33 km - - - 293 ft / 89 m (AMSL)

Popular Alternatives